Terminal Aerodrome Forecast
Issued by NWS

Home | Current Version | Previous Version | Text Only | Print | Product List | Glossary On
Versions: 1 2 3 4 5 6 7 8 9 10 11 12 13 14 15 16
000
FTAK31 PAFA 210520
TAFAFA
TAF
PAFA 210520Z 2106/2212 00000KT P6SM FEW070
     FM211200 VRB02KT 2SM BR BKN004
     FM211900 VRB03KT P6SM FEW005 SCT080=

USA.gov is the U.S. government's official web portal to all federal, state and local government web resources and services.